createdAt,value
2023-02-16T00:00:01.901Z,-4.80
2023-02-16T00:05:33.491Z,-4.91
2023-02-16T00:11:41.184Z,-4.98
2023-02-16T00:17:04.363Z,-5.04
2023-02-16T00:22:26.273Z,-5.46
2023-02-16T00:27:47.987Z,-5.34
2023-02-16T00:33:22.236Z,-5.37
2023-02-16T00:38:45.060Z,-5.46
2023-02-16T00:44:13.822Z,-5.69
2023-02-16T00:49:36.039Z,-5.80
2023-02-16T00:54:59.584Z,-5.91
2023-02-16T01:00:25.945Z,-5.98
2023-02-16T01:05:48.386Z,-6.34
2023-02-16T01:11:13.500Z,-6.51
2023-02-16T01:16:41.460Z,-6.80
2023-02-16T01:22:03.885Z,-6.99
2023-02-16T01:27:26.220Z,-7.25
2023-02-16T01:32:52.308Z,-7.39
2023-02-16T01:38:23.637Z,-7.70
2023-02-16T01:44:04.499Z,-7.90
2023-02-16T01:49:28.366Z,-8.12
2023-02-16T01:55:05.377Z,-8.29
2023-02-16T02:00:53.477Z,-8.54
2023-02-16T02:06:33.770Z,-8.59
2023-02-16T02:12:10.571Z,-8.86
2023-02-16T02:17:37.026Z,-8.86
2023-02-16T02:23:38.920Z,-9.12
2023-02-16T02:29:20.460Z,-9.26
2023-02-16T02:35:24.598Z,-9.25
2023-02-16T02:40:55.653Z,-9.35
2023-02-16T02:46:27.077Z,-9.55
2023-02-16T02:51:50.840Z,-9.58
2023-02-16T02:57:56.395Z,-9.90
2023-02-16T03:03:35.161Z,-10.20
2023-02-16T03:09:12.087Z,-10.09
2023-02-16T03:14:52.233Z,-10.04
2023-02-16T03:20:35.538Z,-10.17
2023-02-16T03:26:16.739Z,-10.37
2023-02-16T03:31:40.761Z,-10.26
2023-02-16T03:37:03.735Z,-10.31
2023-02-16T03:42:26.329Z,-10.21
2023-02-16T03:47:48.672Z,-10.34
2023-02-16T03:53:11.122Z,-10.31
2023-02-16T03:58:33.952Z,-10.24
2023-02-16T04:03:56.446Z,-10.32
2023-02-16T04:09:18.730Z,-10.15
2023-02-16T04:14:43.256Z,-10.34
2023-02-16T04:20:11.412Z,-10.07
2023-02-16T04:25:33.799Z,-10.09
2023-02-16T04:30:56.131Z,-9.96
2023-02-16T04:36:18.541Z,-9.97
2023-02-16T04:41:40.865Z,-9.84
2023-02-16T04:47:02.744Z,-9.66
2023-02-16T04:52:26.174Z,-9.68
2023-02-16T04:57:47.985Z,-9.58
2023-02-16T05:03:10.445Z,-9.33
2023-02-16T05:08:32.828Z,-9.04
2023-02-16T05:14:16.853Z,-8.80
2023-02-16T05:19:38.688Z,-8.52
2023-02-16T05:25:00.208Z,-8.28
2023-02-16T05:30:22.260Z,-8.08
2023-02-16T05:35:44.589Z,-7.97
2023-02-16T05:41:06.301Z,-7.78
2023-02-16T05:46:30.000Z,-7.62
2023-02-16T05:51:52.235Z,-7.56
2023-02-16T05:57:14.216Z,-7.31
2023-02-16T06:02:36.415Z,-7.23
2023-02-16T06:07:58.546Z,-6.97
2023-02-16T06:13:21.702Z,-6.61
2023-02-16T06:18:44.995Z,-6.40
2023-02-16T06:24:08.782Z,-6.24
2023-02-16T06:29:30.913Z,-6.03
2023-02-16T06:34:52.559Z,-5.85
2023-02-16T06:40:15.744Z,-5.72
2023-02-16T06:45:37.393Z,-5.60
2023-02-16T06:50:59.895Z,-5.59
2023-02-16T06:56:22.185Z,-5.46
2023-02-16T07:01:45.493Z,-5.27
2023-02-16T07:07:07.633Z,-5.04
2023-02-16T07:12:33.477Z,-5.08
2023-02-16T07:17:55.594Z,-4.93
2023-02-16T07:23:18.022Z,-4.73
2023-02-16T07:28:39.893Z,-4.82
2023-02-16T07:34:01.550Z,-4.93
2023-02-16T07:39:23.536Z,-5.13
2023-02-16T07:44:46.564Z,-5.21
2023-02-16T07:50:09.334Z,-5.23
2023-02-16T07:55:31.643Z,-5.06
2023-02-16T08:00:56.560Z,-5.03
2023-02-16T08:06:19.300Z,-4.99
2023-02-16T08:11:41.841Z,-4.89
2023-02-16T08:17:05.177Z,-4.86
2023-02-16T08:22:27.323Z,-4.59
2023-02-16T08:27:49.300Z,-4.12
2023-02-16T08:33:14.131Z,-4.08
2023-02-16T08:38:37.849Z,-4.06
2023-02-16T08:44:01.473Z,-3.89
2023-02-16T08:49:24.553Z,-3.79
2023-02-16T08:54:46.750Z,-3.78
2023-02-16T09:00:29.325Z,-4.06
2023-02-16T09:05:53.739Z,-3.71
2023-02-16T09:11:17.196Z,-3.84
2023-02-16T09:16:46.116Z,-3.66
2023-02-16T09:22:08.606Z,-3.52
2023-02-16T09:27:32.198Z,-3.54
2023-02-16T09:32:55.565Z,-3.52
2023-02-16T09:38:18.317Z,-3.50
2023-02-16T09:43:56.325Z,-3.41
2023-02-16T09:49:30.584Z,-3.40
2023-02-16T09:54:55.894Z,-3.25
2023-02-16T10:00:31.825Z,-3.37
2023-02-16T10:06:24.674Z,-3.28
2023-02-16T10:17:36.342Z,-3.37
2023-02-16T10:23:27.593Z,-3.35
2023-02-16T10:28:56.057Z,-3.37
2023-02-16T10:34:33.428Z,-3.58
2023-02-16T10:40:01.761Z,-3.74
2023-02-16T10:45:52.404Z,-3.63
2023-02-16T10:51:19.094Z,-3.35
2023-02-16T10:56:50.112Z,-3.44
2023-02-16T11:02:26.412Z,-3.24
2023-02-16T11:07:57.704Z,-3.54
2023-02-16T11:13:29.363Z,-3.29
2023-02-16T11:19:04.886Z,-3.48
2023-02-16T11:24:41.437Z,-3.48
2023-02-16T11:30:24.525Z,-3.43
2023-02-16T11:35:49.224Z,-3.35
2023-02-16T11:41:12.121Z,-3.54
2023-02-16T11:46:41.255Z,-3.76
2023-02-16T11:52:22.881Z,-3.60
2023-02-16T11:57:45.789Z,-3.42
2023-02-16T12:03:25.898Z,-3.25
2023-02-16T12:09:13.835Z,-3.45
2023-02-16T12:14:47.945Z,-3.35
2023-02-16T12:20:37.750Z,-3.42
2023-02-16T12:26:12.148Z,-3.56
2023-02-16T12:31:47.967Z,-3.58
2023-02-16T12:37:23.005Z,-3.74
2023-02-16T12:43:06.117Z,-3.81
2023-02-16T12:48:46.708Z,-3.84
2023-02-16T12:54:21.319Z,-4.09
2023-02-16T12:59:50.935Z,-4.22
2023-02-16T13:05:35.578Z,-4.52
2023-02-16T13:11:22.933Z,-4.49
2023-02-16T13:17:12.507Z,-4.63
2023-02-16T13:23:12.462Z,-4.72
2023-02-16T13:29:02.850Z,-4.87
2023-02-16T13:34:52.093Z,-4.83
2023-02-16T13:40:36.960Z,-5.00
2023-02-16T13:46:04.179Z,-5.32
2023-02-16T13:51:31.640Z,-5.42
2023-02-16T13:56:58.587Z,-5.63
2023-02-16T14:02:52.088Z,-5.85
2023-02-16T14:08:23.899Z,-6.14
2023-02-16T14:13:51.009Z,-6.39
2023-02-16T14:19:25.516Z,-6.73
2023-02-16T14:24:54.682Z,-6.96
2023-02-16T14:30:43.973Z,-7.25
2023-02-16T14:36:18.130Z,-7.48
2023-02-16T14:41:43.168Z,-7.76
2023-02-16T14:47:41.976Z,-8.05
2023-02-16T14:53:33.748Z,-7.70
2023-02-16T14:58:58.514Z,-7.75
2023-02-16T15:04:30.997Z,-7.98
2023-02-16T15:09:58.115Z,-8.10
2023-02-16T15:15:56.519Z,-8.31
2023-02-16T15:21:25.715Z,-8.52
2023-02-16T15:26:56.630Z,-8.85
2023-02-16T15:32:19.584Z,-8.97
2023-02-16T15:37:41.769Z,-9.08
2023-02-16T15:43:23.445Z,-9.16
2023-02-16T15:48:46.560Z,-8.93
2023-02-16T15:54:25.445Z,-8.96
2023-02-16T15:59:50.800Z,-8.94
2023-02-16T16:05:28.581Z,-8.69
2023-02-16T16:10:50.969Z,-8.92
2023-02-16T16:16:15.533Z,-8.79
2023-02-16T16:21:48.490Z,-8.86
2023-02-16T16:27:13.041Z,-9.21
2023-02-16T16:32:37.236Z,-9.20
2023-02-16T16:37:59.797Z,-9.48
2023-02-16T16:43:28.927Z,-9.53
2023-02-16T16:48:54.326Z,-9.72
2023-02-16T16:54:40.168Z,-9.82
2023-02-16T17:00:02.435Z,-9.98
2023-02-16T17:05:26.862Z,-10.20
2023-02-16T17:10:49.542Z,-10.37
2023-02-16T17:16:22.443Z,-10.68
2023-02-16T17:21:46.102Z,-10.78
2023-02-16T17:27:11.536Z,-10.69
2023-02-16T17:32:37.203Z,-10.52
2023-02-16T17:37:59.721Z,-10.33
2023-02-16T17:43:22.520Z,-10.32
2023-02-16T17:48:45.923Z,-10.20
2023-02-16T17:54:14.118Z,-10.05
2023-02-16T17:59:41.676Z,-9.98
2023-02-16T18:05:03.590Z,-9.84
2023-02-16T18:10:51.006Z,-9.83
2023-02-16T18:16:25.684Z,-9.85
2023-02-16T18:21:47.664Z,-9.75
2023-02-16T18:27:11.508Z,-9.69
2023-02-16T18:32:36.924Z,-9.45
2023-02-16T18:37:59.896Z,-9.22
2023-02-16T18:43:22.441Z,-9.02
2023-02-16T18:48:44.135Z,-8.90
2023-02-16T18:54:08.886Z,-8.84
2023-02-16T18:59:30.537Z,-8.91
2023-02-16T19:04:52.278Z,-8.94
2023-02-16T19:10:14.436Z,-8.83
2023-02-16T19:15:37.246Z,-8.75
2023-02-16T19:20:59.708Z,-8.78
2023-02-16T19:26:21.636Z,-8.62
2023-02-16T19:31:43.753Z,-8.54
2023-02-16T19:37:07.376Z,-8.58
2023-02-16T19:42:29.263Z,-8.38
2023-02-16T19:47:51.923Z,-8.32
2023-02-16T19:53:14.532Z,-8.43
2023-02-16T19:58:36.600Z,-8.30
2023-02-16T20:03:58.845Z,-8.39
2023-02-16T20:09:22.375Z,-8.46
2023-02-16T20:14:44.043Z,-8.21
2023-02-16T20:20:06.457Z,-8.41
2023-02-16T20:25:28.226Z,-8.24
2023-02-16T20:30:51.713Z,-8.20
2023-02-16T20:36:13.613Z,-8.15
2023-02-16T20:41:35.717Z,-8.10
2023-02-16T20:46:57.798Z,-8.37
2023-02-16T20:52:19.670Z,-8.14
2023-02-16T20:57:42.122Z,-8.03
2023-02-16T21:03:04.082Z,-7.98
2023-02-16T21:08:26.268Z,-7.88
2023-02-16T21:13:48.314Z,-7.91
2023-02-16T21:19:21.199Z,-8.04
2023-02-16T21:24:45.206Z,-7.95
2023-02-16T21:30:08.539Z,-7.95
2023-02-16T21:35:32.250Z,-7.85
2023-02-16T21:41:12.721Z,-7.66
2023-02-16T21:46:37.333Z,-7.59
2023-02-16T21:51:59.288Z,-7.64
2023-02-16T21:57:21.468Z,-7.71
2023-02-16T22:02:43.486Z,-7.67
2023-02-16T22:08:08.053Z,-7.56
2023-02-16T22:13:32.248Z,-7.57
2023-02-16T22:19:02.214Z,-7.55
2023-02-16T22:24:24.000Z,-7.60
2023-02-16T22:29:46.241Z,-7.50
2023-02-16T22:35:08.204Z,-7.60
2023-02-16T22:40:30.089Z,-7.61
2023-02-16T22:45:52.101Z,-7.37
2023-02-16T22:51:16.179Z,-7.31
2023-02-16T22:56:38.156Z,-7.33
2023-02-16T23:02:00.277Z,-7.31
2023-02-16T23:07:22.518Z,-7.23
2023-02-16T23:12:44.509Z,-7.30
2023-02-16T23:18:06.444Z,-7.48
2023-02-16T23:23:28.294Z,-7.55
2023-02-16T23:28:54.811Z,-7.75
2023-02-16T23:34:17.914Z,-7.96
2023-02-16T23:39:39.722Z,-8.22
2023-02-16T23:45:05.134Z,-8.42
2023-02-16T23:50:27.152Z,-8.72
2023-02-16T23:56:21.145Z,-8.89
